sensor_id;sensor_type;location;lat;lon;timestamp;P1;durP1;ratioP1;P2;durP2;ratioP2
9823;SDS011;4951;50.778;7.196;2024-02-26T00:01:40;1.67;;;1.50;;
9823;SDS011;4951;50.778;7.196;2024-02-26T00:04:14;1.70;;;1.60;;
9823;SDS011;4951;50.778;7.196;2024-02-26T00:06:46;1.70;;;1.60;;
9823;SDS011;4951;50.778;7.196;2024-02-26T00:09:15;1.60;;;1.50;;
9823;SDS011;4951;50.778;7.196;2024-02-26T00:11:43;1.87;;;1.47;;
9823;SDS011;4951;50.778;7.196;2024-02-26T00:14:30;2.10;;;1.60;;
9823;SDS011;4951;50.778;7.196;2024-02-26T00:17:09;2.33;;;1.60;;
9823;SDS011;4951;50.778;7.196;2024-02-26T00:19:42;2.73;;;1.80;;
9823;SDS011;4951;50.778;7.196;2024-02-26T00:22:22;1.70;;;1.50;;
9823;SDS011;4951;50.778;7.196;2024-02-26T00:24:50;2.47;;;1.70;;
9823;SDS011;4951;50.778;7.196;2024-02-26T00:27:19;1.90;;;1.50;;
9823;SDS011;4951;50.778;7.196;2024-02-26T00:29:49;2.00;;;1.50;;
9823;SDS011;4951;50.778;7.196;2024-02-26T00:32:21;2.00;;;1.40;;
9823;SDS011;4951;50.778;7.196;2024-02-26T00:34:57;1.70;;;1.50;;
9823;SDS011;4951;50.778;7.196;2024-02-26T00:37:25;1.50;;;1.40;;
9823;SDS011;4951;50.778;7.196;2024-02-26T00:39:57;1.57;;;1.37;;
9823;SDS011;4951;50.778;7.196;2024-02-26T00:42:26;1.50;;;1.40;;
9823;SDS011;4951;50.778;7.196;2024-02-26T00:44:54;2.50;;;1.47;;
9823;SDS011;4951;50.778;7.196;2024-02-26T00:47:23;1.67;;;1.53;;
9823;SDS011;4951;50.778;7.196;2024-02-26T00:49:51;1.40;;;1.30;;
9823;SDS011;4951;50.778;7.196;2024-02-26T00:52:40;2.10;;;1.40;;
9823;SDS011;4951;50.778;7.196;2024-02-26T00:55:13;2.40;;;1.53;;
9823;SDS011;4951;50.778;7.196;2024-02-26T00:57:44;3.60;;;1.40;;
9823;SDS011;4951;50.778;7.196;2024-02-26T01:00:14;1.57;;;1.30;;
9823;SDS011;4951;50.778;7.196;2024-02-26T01:02:47;2.57;;;1.50;;
9823;SDS011;4951;50.778;7.196;2024-02-26T01:05:16;1.60;;;1.50;;
9823;SDS011;4951;50.778;7.196;2024-02-26T01:07:47;3.47;;;1.50;;
9823;SDS011;4951;50.778;7.196;2024-02-26T01:10:17;1.70;;;1.43;;
9823;SDS011;4951;50.778;7.196;2024-02-26T01:12:48;1.87;;;1.60;;
9823;SDS011;4951;50.778;7.196;2024-02-26T01:15:16;1.83;;;1.30;;
9823;SDS011;4951;50.778;7.196;2024-02-26T01:17:48;1.47;;;1.33;;
9823;SDS011;4951;50.778;7.196;2024-02-26T01:20:24;1.57;;;1.43;;
9823;SDS011;4951;50.778;7.196;2024-02-26T01:22:59;1.80;;;1.50;;
9823;SDS011;4951;50.778;7.196;2024-02-26T01:25:28;3.23;;;1.60;;
9823;SDS011;4951;50.778;7.196;2024-02-26T01:27:57;1.73;;;1.20;;
9823;SDS011;4951;50.778;7.196;2024-02-26T01:30:24;2.80;;;1.57;;
9823;SDS011;4951;50.778;7.196;2024-02-26T01:32:55;2.03;;;1.60;;
9823;SDS011;4951;50.778;7.196;2024-02-26T01:35:26;1.40;;;1.30;;
9823;SDS011;4951;50.778;7.196;2024-02-26T01:37:56;1.30;;;1.20;;
9823;SDS011;4951;50.778;7.196;2024-02-26T01:40:28;1.50;;;1.23;;
9823;SDS011;4951;50.778;7.196;2024-02-26T01:42:56;1.67;;;1.23;;
9823;SDS011;4951;50.778;7.196;2024-02-26T01:45:25;1.97;;;1.50;;
9823;SDS011;4951;50.778;7.196;2024-02-26T01:47:55;1.60;;;1.50;;
9823;SDS011;4951;50.778;7.196;2024-02-26T01:50:28;1.43;;;1.33;;
9823;SDS011;4951;50.778;7.196;2024-02-26T01:52:58;1.83;;;1.40;;
9823;SDS011;4951;50.778;7.196;2024-02-26T01:55:31;1.53;;;1.37;;
9823;SDS011;4951;50.778;7.196;2024-02-26T01:58:00;1.67;;;1.33;;
9823;SDS011;4951;50.778;7.196;2024-02-26T02:00:36;1.83;;;1.40;;
9823;SDS011;4951;50.778;7.196;2024-02-26T02:03:25;3.13;;;1.33;;
9823;SDS011;4951;50.778;7.196;2024-02-26T02:06:09;2.23;;;1.30;;
9823;SDS011;4951;50.778;7.196;2024-02-26T02:08:57;1.40;;;1.30;;
9823;SDS011;4951;50.778;7.196;2024-02-26T02:11:48;1.40;;;1.30;;
9823;SDS011;4951;50.778;7.196;2024-02-26T02:14:24;1.70;;;1.20;;
9823;SDS011;4951;50.778;7.196;2024-02-26T02:17:12;3.13;;;1.40;;
9823;SDS011;4951;50.778;7.196;2024-02-26T02:19:59;2.33;;;1.20;;
9823;SDS011;4951;50.778;7.196;2024-02-26T02:22:37;1.30;;;1.20;;
9823;SDS011;4951;50.778;7.196;2024-02-26T02:25:18;1.60;;;1.30;;
9823;SDS011;4951;50.778;7.196;2024-02-26T02:27:53;1.83;;;1.30;;
9823;SDS011;4951;50.778;7.196;2024-02-26T02:30:26;1.37;;;1.27;;
9823;SDS011;4951;50.778;7.196;2024-02-26T02:33:03;1.30;;;1.23;;
9823;SDS011;4951;50.778;7.196;2024-02-26T02:35:51;1.40;;;1.30;;
9823;SDS011;4951;50.778;7.196;2024-02-26T02:38:26;2.03;;;1.50;;
9823;SDS011;4951;50.778;7.196;2024-02-26T02:41:12;1.23;;;1.13;;
9823;SDS011;4951;50.778;7.196;2024-02-26T02:43:50;1.30;;;1.20;;
9823;SDS011;4951;50.778;7.196;2024-02-26T02:46:37;1.27;;;1.17;;
9823;SDS011;4951;50.778;7.196;2024-02-26T02:49:24;2.50;;;1.40;;
9823;SDS011;4951;50.778;7.196;2024-02-26T02:52:11;1.57;;;1.20;;
9823;SDS011;4951;50.778;7.196;2024-02-26T02:55:00;1.57;;;1.47;;
9823;SDS011;4951;50.778;7.196;2024-02-26T02:57:30;1.30;;;1.20;;
9823;SDS011;4951;50.778;7.196;2024-02-26T03:00:07;3.20;;;1.50;;
9823;SDS011;4951;50.778;7.196;2024-02-26T03:02:56;1.50;;;1.40;;
9823;SDS011;4951;50.778;7.196;2024-02-26T03:05:43;1.93;;;1.20;;
9823;SDS011;4951;50.778;7.196;2024-02-26T03:08:30;2.20;;;1.30;;
9823;SDS011;4951;50.778;7.196;2024-02-26T03:11:22;1.90;;;1.43;;
9823;SDS011;4951;50.778;7.196;2024-02-26T03:14:11;1.70;;;1.47;;
9823;SDS011;4951;50.778;7.196;2024-02-26T03:16:58;1.50;;;1.10;;
9823;SDS011;4951;50.778;7.196;2024-02-26T03:19:46;1.53;;;1.20;;
9823;SDS011;4951;50.778;7.196;2024-02-26T03:22:20;4.90;;;2.13;;
9823;SDS011;4951;50.778;7.196;2024-02-26T03:24:57;2.07;;;1.53;;
9823;SDS011;4951;50.778;7.196;2024-02-26T03:27:31;2.10;;;1.50;;
9823;SDS011;4951;50.778;7.196;2024-02-26T03:30:07;1.40;;;1.30;;
9823;SDS011;4951;50.778;7.196;2024-02-26T03:32:56;1.60;;;1.50;;
9823;SDS011;4951;50.778;7.196;2024-02-26T03:35:40;1.90;;;1.33;;
9823;SDS011;4951;50.778;7.196;2024-02-26T03:38:17;2.80;;;1.60;;
9823;SDS011;4951;50.778;7.196;2024-02-26T03:40:54;1.50;;;1.20;;
9823;SDS011;4951;50.778;7.196;2024-02-26T03:43:35;1.53;;;1.30;;
9823;SDS011;4951;50.778;7.196;2024-02-26T03:46:11;1.83;;;1.40;;
9823;SDS011;4951;50.778;7.196;2024-02-26T03:48:56;2.50;;;1.60;;
9823;SDS011;4951;50.778;7.196;2024-02-26T03:51:32;2.03;;;1.30;;
9823;SDS011;4951;50.778;7.196;2024-02-26T03:54:12;1.53;;;1.43;;
9823;SDS011;4951;50.778;7.196;2024-02-26T03:56:59;2.33;;;1.60;;
9823;SDS011;4951;50.778;7.196;2024-02-26T03:59:35;2.57;;;1.63;;
9823;SDS011;4951;50.778;7.196;2024-02-26T04:02:14;3.47;;;1.70;;
9823;SDS011;4951;50.778;7.196;2024-02-26T04:04:51;1.93;;;1.50;;
9823;SDS011;4951;50.778;7.196;2024-02-26T04:07:25;1.53;;;1.40;;
9823;SDS011;4951;50.778;7.196;2024-02-26T04:09:55;1.60;;;1.50;;
9823;SDS011;4951;50.778;7.196;2024-02-26T04:12:28;1.50;;;1.40;;
9823;SDS011;4951;50.778;7.196;2024-02-26T04:15:10;3.23;;;1.70;;
9823;SDS011;4951;50.778;7.196;2024-02-26T04:17:57;1.87;;;1.63;;
9823;SDS011;4951;50.778;7.196;2024-02-26T04:20:44;1.50;;;1.40;;
9823;SDS011;4951;50.778;7.196;2024-02-26T04:23:31;1.57;;;1.47;;
9823;SDS011;4951;50.778;7.196;2024-02-26T04:26:02;2.17;;;1.60;;
9823;SDS011;4951;50.778;7.196;2024-02-26T04:28:49;3.00;;;1.60;;
9823;SDS011;4951;50.778;7.196;2024-02-26T04:31:38;3.40;;;1.70;;
9823;SDS011;4951;50.778;7.196;2024-02-26T04:34:27;1.63;;;1.40;;
9823;SDS011;4951;50.778;7.196;2024-02-26T04:37:14;2.27;;;1.60;;
9823;SDS011;4951;50.778;7.196;2024-02-26T04:39:48;2.03;;;1.63;;
9823;SDS011;4951;50.778;7.196;2024-02-26T04:42:35;1.90;;;1.67;;
9823;SDS011;4951;50.778;7.196;2024-02-26T04:45:10;1.80;;;1.50;;
9823;SDS011;4951;50.778;7.196;2024-02-26T04:47:59;2.07;;;1.60;;
9823;SDS011;4951;50.778;7.196;2024-02-26T04:50:31;4.63;;;1.80;;
9823;SDS011;4951;50.778;7.196;2024-02-26T04:53:00;4.17;;;1.80;;
9823;SDS011;4951;50.778;7.196;2024-02-26T04:55:40;3.17;;;2.10;;
9823;SDS011;4951;50.778;7.196;2024-02-26T04:58:16;3.13;;;1.77;;
9823;SDS011;4951;50.778;7.196;2024-02-26T05:00:46;1.93;;;1.60;;
9823;SDS011;4951;50.778;7.196;2024-02-26T05:03:34;2.80;;;1.80;;
9823;SDS011;4951;50.778;7.196;2024-02-26T05:06:22;3.80;;;1.87;;
9823;SDS011;4951;50.778;7.196;2024-02-26T05:09:02;1.93;;;1.73;;
9823;SDS011;4951;50.778;7.196;2024-02-26T05:11:48;1.70;;;1.60;;
9823;SDS011;4951;50.778;7.196;2024-02-26T05:14:21;2.93;;;1.87;;
9823;SDS011;4951;50.778;7.196;2024-02-26T05:16:55;2.07;;;1.90;;
9823;SDS011;4951;50.778;7.196;2024-02-26T05:19:24;2.63;;;1.90;;
9823;SDS011;4951;50.778;7.196;2024-02-26T05:21:52;2.80;;;1.77;;
9823;SDS011;4951;50.778;7.196;2024-02-26T05:24:20;3.90;;;1.73;;
9823;SDS011;4951;50.778;7.196;2024-02-26T05:26:51;2.20;;;1.83;;
9823;SDS011;4951;50.778;7.196;2024-02-26T05:29:24;2.10;;;1.80;;
9823;SDS011;4951;50.778;7.196;2024-02-26T05:32:00;1.90;;;1.73;;
9823;SDS011;4951;50.778;7.196;2024-02-26T05:34:35;2.10;;;1.80;;
9823;SDS011;4951;50.778;7.196;2024-02-26T05:37:12;1.97;;;1.73;;
9823;SDS011;4951;50.778;7.196;2024-02-26T05:39:59;2.13;;;1.60;;
9823;SDS011;4951;50.778;7.196;2024-02-26T05:42:46;2.30;;;1.93;;
9823;SDS011;4951;50.778;7.196;2024-02-26T05:45:30;6.43;;;1.93;;
9823;SDS011;4951;50.778;7.196;2024-02-26T05:48:00;5.07;;;1.90;;
9823;SDS011;4951;50.778;7.196;2024-02-26T05:50:29;2.73;;;1.80;;
9823;SDS011;4951;50.778;7.196;2024-02-26T05:53:00;2.40;;;2.00;;
9823;SDS011;4951;50.778;7.196;2024-02-26T05:55:40;2.53;;;2.00;;
9823;SDS011;4951;50.778;7.196;2024-02-26T05:58:27;3.90;;;1.70;;
9823;SDS011;4951;50.778;7.196;2024-02-26T06:00:56;3.43;;;1.67;;
9823;SDS011;4951;50.778;7.196;2024-02-26T06:03:43;2.53;;;1.87;;
9823;SDS011;4951;50.778;7.196;2024-02-26T06:06:19;3.60;;;2.17;;
9823;SDS011;4951;50.778;7.196;2024-02-26T06:08:52;3.10;;;1.93;;
9823;SDS011;4951;50.778;7.196;2024-02-26T06:11:32;4.03;;;2.13;;
9823;SDS011;4951;50.778;7.196;2024-02-26T06:14:01;5.23;;;2.00;;
9823;SDS011;4951;50.778;7.196;2024-02-26T06:16:31;3.20;;;2.00;;
9823;SDS011;4951;50.778;7.196;2024-02-26T06:19:00;3.67;;;2.20;;
9823;SDS011;4951;50.778;7.196;2024-02-26T06:21:32;2.83;;;1.90;;
9823;SDS011;4951;50.778;7.196;2024-02-26T06:24:01;2.20;;;2.00;;
9823;SDS011;4951;50.778;7.196;2024-02-26T06:26:30;2.57;;;2.10;;
9823;SDS011;4951;50.778;7.196;2024-02-26T06:29:01;4.73;;;2.07;;
9823;SDS011;4951;50.778;7.196;2024-02-26T06:31:33;2.40;;;2.20;;
9823;SDS011;4951;50.778;7.196;2024-02-26T06:34:04;2.67;;;2.20;;
9823;SDS011;4951;50.778;7.196;2024-02-26T06:36:41;4.27;;;2.40;;
9823;SDS011;4951;50.778;7.196;2024-02-26T06:39:10;5.60;;;2.20;;
9823;SDS011;4951;50.778;7.196;2024-02-26T06:41:39;3.33;;;2.70;;
9823;SDS011;4951;50.778;7.196;2024-02-26T06:44:10;4.33;;;2.90;;
9823;SDS011;4951;50.778;7.196;2024-02-26T06:46:41;2.90;;;2.30;;
9823;SDS011;4951;50.778;7.196;2024-02-26T06:49:12;3.07;;;2.53;;
9823;SDS011;4951;50.778;7.196;2024-02-26T06:51:40;3.77;;;2.50;;
9823;SDS011;4951;50.778;7.196;2024-02-26T06:54:17;3.30;;;2.60;;
9823;SDS011;4951;50.778;7.196;2024-02-26T06:56:49;4.37;;;2.80;;
9823;SDS011;4951;50.778;7.196;2024-02-26T06:59:17;2.93;;;2.63;;
9823;SDS011;4951;50.778;7.196;2024-02-26T07:01:48;4.00;;;2.73;;
9823;SDS011;4951;50.778;7.196;2024-02-26T07:04:22;4.97;;;2.50;;
9823;SDS011;4951;50.778;7.196;2024-02-26T07:07:00;3.23;;;2.30;;
9823;SDS011;4951;50.778;7.196;2024-02-26T07:09:41;3.43;;;2.77;;
9823;SDS011;4951;50.778;7.196;2024-02-26T07:12:13;3.20;;;2.70;;
9823;SDS011;4951;50.778;7.196;2024-02-26T07:14:49;3.80;;;2.80;;
9823;SDS011;4951;50.778;7.196;2024-02-26T07:17:23;3.03;;;2.50;;
9823;SDS011;4951;50.778;7.196;2024-02-26T07:19:55;4.50;;;2.80;;
9823;SDS011;4951;50.778;7.196;2024-02-26T07:22:43;3.00;;;2.70;;
9823;SDS011;4951;50.778;7.196;2024-02-26T07:25:27;3.60;;;3.00;;
9823;SDS011;4951;50.778;7.196;2024-02-26T07:28:02;4.07;;;2.93;;
9823;SDS011;4951;50.778;7.196;2024-02-26T07:30:35;3.80;;;2.73;;
9823;SDS011;4951;50.778;7.196;2024-02-26T07:33:10;4.93;;;2.73;;
9823;SDS011;4951;50.778;7.196;2024-02-26T07:35:49;4.90;;;3.00;;
9823;SDS011;4951;50.778;7.196;2024-02-26T07:38:23;4.47;;;2.93;;
9823;SDS011;4951;50.778;7.196;2024-02-26T07:41:11;4.27;;;2.47;;
9823;SDS011;4951;50.778;7.196;2024-02-26T07:43:43;4.63;;;2.40;;
9823;SDS011;4951;50.778;7.196;2024-02-26T07:46:12;3.00;;;2.70;;
9823;SDS011;4951;50.778;7.196;2024-02-26T07:48:48;3.17;;;2.87;;
9823;SDS011;4951;50.778;7.196;2024-02-26T07:51:25;3.37;;;2.30;;
9823;SDS011;4951;50.778;7.196;2024-02-26T07:53:57;3.33;;;2.40;;
9823;SDS011;4951;50.778;7.196;2024-02-26T07:56:31;5.00;;;2.60;;
9823;SDS011;4951;50.778;7.196;2024-02-26T07:59:06;4.47;;;3.00;;
9823;SDS011;4951;50.778;7.196;2024-02-26T08:01:54;2.90;;;2.43;;
9823;SDS011;4951;50.778;7.196;2024-02-26T08:04:25;2.97;;;2.30;;
9823;SDS011;4951;50.778;7.196;2024-02-26T08:07:12;6.90;;;2.60;;
9823;SDS011;4951;50.778;7.196;2024-02-26T08:09:43;3.77;;;2.50;;
9823;SDS011;4951;50.778;7.196;2024-02-26T08:12:13;3.20;;;2.30;;
9823;SDS011;4951;50.778;7.196;2024-02-26T08:14:49;4.40;;;2.70;;
9823;SDS011;4951;50.778;7.196;2024-02-26T08:17:18;3.90;;;3.00;;
9823;SDS011;4951;50.778;7.196;2024-02-26T08:19:46;4.43;;;2.90;;
9823;SDS011;4951;50.778;7.196;2024-02-26T08:22:19;6.33;;;3.50;;
9823;SDS011;4951;50.778;7.196;2024-02-26T08:24:57;3.73;;;3.37;;
9823;SDS011;4951;50.778;7.196;2024-02-26T08:27:44;4.50;;;2.97;;
9823;SDS011;4951;50.778;7.196;2024-02-26T08:30:16;3.60;;;3.00;;
9823;SDS011;4951;50.778;7.196;2024-02-26T08:32:47;2.90;;;2.50;;
9823;SDS011;4951;50.778;7.196;2024-02-26T08:35:21;3.60;;;3.10;;
9823;SDS011;4951;50.778;7.196;2024-02-26T08:37:52;4.03;;;3.13;;
9823;SDS011;4951;50.778;7.196;2024-02-26T08:40:29;3.53;;;3.13;;
9823;SDS011;4951;50.778;7.196;2024-02-26T08:43:01;3.50;;;2.40;;
9823;SDS011;4951;50.778;7.196;2024-02-26T08:45:35;6.03;;;3.40;;
9823;SDS011;4951;50.778;7.196;2024-02-26T08:48:22;3.47;;;2.80;;
9823;SDS011;4951;50.778;7.196;2024-02-26T08:50:54;3.43;;;3.13;;
9823;SDS011;4951;50.778;7.196;2024-02-26T08:53:38;3.70;;;2.77;;
9823;SDS011;4951;50.778;7.196;2024-02-26T08:56:16;3.20;;;2.90;;
9823;SDS011;4951;50.778;7.196;2024-02-26T08:58:46;4.00;;;3.00;;
9823;SDS011;4951;50.778;7.196;2024-02-26T09:01:21;2.93;;;2.60;;
9823;SDS011;4951;50.778;7.196;2024-02-26T09:03:52;4.93;;;3.03;;
9823;SDS011;4951;50.778;7.196;2024-02-26T09:06:20;6.17;;;3.50;;
9823;SDS011;4951;50.778;7.196;2024-02-26T09:08:49;5.10;;;3.20;;
9823;SDS011;4951;50.778;7.196;2024-02-26T09:11:20;2.97;;;2.67;;
9823;SDS011;4951;50.778;7.196;2024-02-26T09:13:50;3.10;;;2.80;;
9823;SDS011;4951;50.778;7.196;2024-02-26T09:16:18;7.10;;;3.93;;
9823;SDS011;4951;50.778;7.196;2024-02-26T09:18:45;3.83;;;3.43;;
9823;SDS011;4951;50.778;7.196;2024-02-26T09:21:14;4.93;;;3.53;;
9823;SDS011;4951;50.778;7.196;2024-02-26T09:23:48;5.63;;;3.60;;
9823;SDS011;4951;50.778;7.196;2024-02-26T09:26:16;4.90;;;3.50;;
9823;SDS011;4951;50.778;7.196;2024-02-26T09:28:47;5.13;;;3.67;;
9823;SDS011;4951;50.778;7.196;2024-02-26T09:31:15;6.13;;;3.63;;
9823;SDS011;4951;50.778;7.196;2024-02-26T09:33:53;4.90;;;3.30;;
9823;SDS011;4951;50.778;7.196;2024-02-26T09:36:23;5.20;;;2.93;;
9823;SDS011;4951;50.778;7.196;2024-02-26T09:38:51;4.20;;;2.80;;
9823;SDS011;4951;50.778;7.196;2024-02-26T09:41:20;3.73;;;2.90;;
9823;SDS011;4951;50.778;7.196;2024-02-26T09:43:55;3.47;;;3.00;;
9823;SDS011;4951;50.778;7.196;2024-02-26T09:46:27;3.97;;;2.83;;
9823;SDS011;4951;50.778;7.196;2024-02-26T09:49:01;3.00;;;2.70;;
9823;SDS011;4951;50.778;7.196;2024-02-26T09:51:34;4.50;;;3.23;;
9823;SDS011;4951;50.778;7.196;2024-02-26T09:54:06;4.73;;;3.23;;
9823;SDS011;4951;50.778;7.196;2024-02-26T09:56:52;3.93;;;3.10;;
9823;SDS011;4951;50.778;7.196;2024-02-26T09:59:29;3.60;;;3.30;;
9823;SDS011;4951;50.778;7.196;2024-02-26T10:02:22;3.43;;;3.13;;
9823;SDS011;4951;50.778;7.196;2024-02-26T10:04:56;3.90;;;3.37;;
9823;SDS011;4951;50.778;7.196;2024-02-26T10:07:47;3.70;;;3.13;;
9823;SDS011;4951;50.778;7.196;2024-02-26T10:10:20;4.63;;;3.00;;
9823;SDS011;4951;50.778;7.196;2024-02-26T10:13:08;3.90;;;2.77;;
9823;SDS011;4951;50.778;7.196;2024-02-26T10:15:47;3.37;;;3.00;;
9823;SDS011;4951;50.778;7.196;2024-02-26T10:18:18;3.57;;;2.80;;
9823;SDS011;4951;50.778;7.196;2024-02-26T10:21:03;3.03;;;2.73;;
9823;SDS011;4951;50.778;7.196;2024-02-26T10:23:41;4.07;;;2.90;;
9823;SDS011;4951;50.778;7.196;2024-02-26T10:26:15;4.03;;;2.80;;
9823;SDS011;4951;50.778;7.196;2024-02-26T10:28:46;5.17;;;2.90;;
9823;SDS011;4951;50.778;7.196;2024-02-26T10:31:17;4.33;;;3.23;;
9823;SDS011;4951;50.778;7.196;2024-02-26T10:33:51;3.27;;;2.97;;
9823;SDS011;4951;50.778;7.196;2024-02-26T10:36:28;4.80;;;3.40;;
9823;SDS011;4951;50.778;7.196;2024-02-26T10:39:01;3.30;;;3.00;;
9823;SDS011;4951;50.778;7.196;2024-02-26T10:41:40;3.00;;;2.43;;
9823;SDS011;4951;50.778;7.196;2024-02-26T10:44:27;3.10;;;2.83;;
9823;SDS011;4951;50.778;7.196;2024-02-26T10:47:02;4.33;;;3.07;;
9823;SDS011;4951;50.778;7.196;2024-02-26T10:49:35;6.07;;;3.10;;
9823;SDS011;4951;50.778;7.196;2024-02-26T10:52:11;4.80;;;3.00;;
9823;SDS011;4951;50.778;7.196;2024-02-26T10:54:41;3.57;;;2.80;;
9823;SDS011;4951;50.778;7.196;2024-02-26T10:57:14;3.43;;;3.13;;
9823;SDS011;4951;50.778;7.196;2024-02-26T10:59:45;4.37;;;2.70;;
9823;SDS011;4951;50.778;7.196;2024-02-26T11:02:22;4.33;;;2.90;;
9823;SDS011;4951;50.778;7.196;2024-02-26T11:04:53;3.77;;;3.10;;
9823;SDS011;4951;50.778;7.196;2024-02-26T11:07:24;3.30;;;3.00;;
9823;SDS011;4951;50.778;7.196;2024-02-26T11:09:57;4.30;;;3.03;;
9823;SDS011;4951;50.778;7.196;2024-02-26T11:12:31;3.23;;;2.73;;
9823;SDS011;4951;50.778;7.196;2024-02-26T11:15:10;5.20;;;2.97;;
9823;SDS011;4951;50.778;7.196;2024-02-26T11:17:44;3.27;;;2.70;;
9823;SDS011;4951;50.778;7.196;2024-02-26T11:20:16;3.10;;;2.80;;
9823;SDS011;4951;50.778;7.196;2024-02-26T11:22:48;3.27;;;2.80;;
9823;SDS011;4951;50.778;7.196;2024-02-26T11:25:18;4.83;;;3.10;;
9823;SDS011;4951;50.778;7.196;2024-02-26T11:27:47;3.83;;;2.50;;
9823;SDS011;4951;50.778;7.196;2024-02-26T11:30:21;4.73;;;3.23;;
9823;SDS011;4951;50.778;7.196;2024-02-26T11:32:54;3.80;;;3.00;;
9823;SDS011;4951;50.778;7.196;2024-02-26T11:35:22;4.33;;;3.40;;
9823;SDS011;4951;50.778;7.196;2024-02-26T11:38:16;4.33;;;3.40;;
9823;SDS011;4951;50.778;7.196;2024-02-26T11:40:51;4.37;;;3.50;;
9823;SDS011;4951;50.778;7.196;2024-02-26T11:43:52;3.10;;;2.80;;
9823;SDS011;4951;50.778;7.196;2024-02-26T11:46:25;4.70;;;3.17;;
9823;SDS011;4951;50.778;7.196;2024-02-26T11:49:02;4.90;;;3.77;;
9823;SDS011;4951;50.778;7.196;2024-02-26T11:51:32;3.17;;;2.87;;
9823;SDS011;4951;50.778;7.196;2024-02-26T11:54:02;3.80;;;2.83;;
9823;SDS011;4951;50.778;7.196;2024-02-26T11:56:33;3.60;;;3.00;;
9823;SDS011;4951;50.778;7.196;2024-02-26T11:59:09;4.30;;;3.20;;
9823;SDS011;4951;50.778;7.196;2024-02-26T12:01:43;4.47;;;3.03;;
9823;SDS011;4951;50.778;7.196;2024-02-26T12:04:24;4.87;;;2.97;;
9823;SDS011;4951;50.778;7.196;2024-02-26T12:07:02;4.77;;;3.53;;
9823;SDS011;4951;50.778;7.196;2024-02-26T12:09:50;4.43;;;3.23;;
9823;SDS011;4951;50.778;7.196;2024-02-26T12:12:38;4.73;;;3.00;;
9823;SDS011;4951;50.778;7.196;2024-02-26T12:15:22;3.90;;;3.50;;
9823;SDS011;4951;50.778;7.196;2024-02-26T12:17:55;4.30;;;3.33;;
9823;SDS011;4951;50.778;7.196;2024-02-26T12:20:30;3.60;;;2.90;;
9823;SDS011;4951;50.778;7.196;2024-02-26T12:23:00;4.07;;;3.20;;
9823;SDS011;4951;50.778;7.196;2024-02-26T12:25:33;4.20;;;3.50;;
9823;SDS011;4951;50.778;7.196;2024-02-26T12:28:07;4.33;;;3.33;;
9823;SDS011;4951;50.778;7.196;2024-02-26T12:30:36;4.47;;;3.60;;
9823;SDS011;4951;50.778;7.196;2024-02-26T12:33:07;3.47;;;2.53;;
9823;SDS011;4951;50.778;7.196;2024-02-26T12:35:41;6.43;;;3.30;;
9823;SDS011;4951;50.778;7.196;2024-02-26T12:38:18;4.00;;;3.43;;
9823;SDS011;4951;50.778;7.196;2024-02-26T12:40:47;5.63;;;3.60;;
9823;SDS011;4951;50.778;7.196;2024-02-26T12:43:20;6.40;;;3.87;;
9823;SDS011;4951;50.778;7.196;2024-02-26T12:45:50;5.07;;;3.77;;
9823;SDS011;4951;50.778;7.196;2024-02-26T12:48:20;5.00;;;3.50;;
9823;SDS011;4951;50.778;7.196;2024-02-26T12:50:53;4.87;;;3.70;;
9823;SDS011;4951;50.778;7.196;2024-02-26T12:53:28;3.23;;;2.93;;
9823;SDS011;4951;50.778;7.196;2024-02-26T12:56:02;4.97;;;3.60;;
9823;SDS011;4951;50.778;7.196;2024-02-26T12:58:36;6.10;;;3.70;;
9823;SDS011;4951;50.778;7.196;2024-02-26T13:01:24;3.43;;;3.13;;
9823;SDS011;4951;50.778;7.196;2024-02-26T13:04:01;3.83;;;3.43;;
9823;SDS011;4951;50.778;7.196;2024-02-26T13:06:50;4.43;;;2.93;;
9823;SDS011;4951;50.778;7.196;2024-02-26T13:09:27;3.70;;;3.20;;
9823;SDS011;4951;50.778;7.196;2024-02-26T13:11:57;4.77;;;3.23;;
9823;SDS011;4951;50.778;7.196;2024-02-26T13:14:31;4.33;;;3.40;;
9823;SDS011;4951;50.778;7.196;2024-02-26T13:17:09;4.60;;;3.10;;
9823;SDS011;4951;50.778;7.196;2024-02-26T13:19:48;3.83;;;3.40;;
9823;SDS011;4951;50.778;7.196;2024-02-26T13:22:31;6.03;;;4.40;;
9823;SDS011;4951;50.778;7.196;2024-02-26T13:24:59;5.40;;;4.00;;
9823;SDS011;4951;50.778;7.196;2024-02-26T13:27:31;4.10;;;3.70;;
9823;SDS011;4951;50.778;7.196;2024-02-26T13:30:06;4.17;;;3.50;;
9823;SDS011;4951;50.778;7.196;2024-02-26T13:32:40;5.57;;;4.03;;
9823;SDS011;4951;50.778;7.196;2024-02-26T13:35:10;5.10;;;4.40;;
9823;SDS011;4951;50.778;7.196;2024-02-26T13:37:46;5.70;;;4.10;;
9823;SDS011;4951;50.778;7.196;2024-02-26T13:40:29;5.27;;;4.07;;
9823;SDS011;4951;50.778;7.196;2024-02-26T13:42:58;5.67;;;4.40;;
9823;SDS011;4951;50.778;7.196;2024-02-26T13:45:28;7.77;;;4.43;;
9823;SDS011;4951;50.778;7.196;2024-02-26T13:48:08;5.30;;;4.57;;
9823;SDS011;4951;50.778;7.196;2024-02-26T13:50:39;5.43;;;4.17;;
9823;SDS011;4951;50.778;7.196;2024-02-26T13:53:13;7.60;;;5.33;;
9823;SDS011;4951;50.778;7.196;2024-02-26T13:55:42;8.30;;;5.20;;
9823;SDS011;4951;50.778;7.196;2024-02-26T13:58:11;8.17;;;5.60;;
9823;SDS011;4951;50.778;7.196;2024-02-26T14:00:44;5.30;;;4.30;;
9823;SDS011;4951;50.778;7.196;2024-02-26T14:03:18;4.77;;;4.00;;
9823;SDS011;4951;50.778;7.196;2024-02-26T14:05:50;4.43;;;4.03;;
9823;SDS011;4951;50.778;7.196;2024-02-26T14:08:27;5.83;;;4.10;;
9823;SDS011;4951;50.778;7.196;2024-02-26T14:10:59;6.07;;;4.33;;
9823;SDS011;4951;50.778;7.196;2024-02-26T14:13:33;6.43;;;4.80;;
9823;SDS011;4951;50.778;7.196;2024-02-26T14:16:05;4.87;;;4.30;;
9823;SDS011;4951;50.778;7.196;2024-02-26T14:18:50;4.63;;;3.97;;
9823;SDS011;4951;50.778;7.196;2024-02-26T14:21:25;6.67;;;4.30;;
9823;SDS011;4951;50.778;7.196;2024-02-26T14:24:01;6.50;;;4.47;;
9823;SDS011;4951;50.778;7.196;2024-02-26T14:26:33;5.70;;;4.43;;
9823;SDS011;4951;50.778;7.196;2024-02-26T14:29:03;4.93;;;4.50;;
9823;SDS011;4951;50.778;7.196;2024-02-26T14:31:38;5.80;;;4.10;;
9823;SDS011;4951;50.778;7.196;2024-02-26T14:34:08;5.20;;;4.40;;
9823;SDS011;4951;50.778;7.196;2024-02-26T14:36:52;5.00;;;4.00;;
9823;SDS011;4951;50.778;7.196;2024-02-26T14:39:32;5.53;;;4.60;;
9823;SDS011;4951;50.778;7.196;2024-02-26T14:42:03;5.80;;;3.97;;
9823;SDS011;4951;50.778;7.196;2024-02-26T14:44:35;7.33;;;5.17;;
9823;SDS011;4951;50.778;7.196;2024-02-26T14:47:12;6.20;;;4.63;;
9823;SDS011;4951;50.778;7.196;2024-02-26T14:49:48;5.53;;;4.50;;
9823;SDS011;4951;50.778;7.196;2024-02-26T14:52:25;5.30;;;4.67;;
9823;SDS011;4951;50.778;7.196;2024-02-26T14:55:03;6.63;;;4.80;;
9823;SDS011;4951;50.778;7.196;2024-02-26T14:57:51;8.70;;;5.50;;
9823;SDS011;4951;50.778;7.196;2024-02-26T15:00:28;9.37;;;5.70;;
9823;SDS011;4951;50.778;7.196;2024-02-26T15:03:16;5.57;;;4.90;;
9823;SDS011;4951;50.778;7.196;2024-02-26T15:06:01;5.63;;;5.03;;
9823;SDS011;4951;50.778;7.196;2024-02-26T15:08:37;6.50;;;5.47;;
9823;SDS011;4951;50.778;7.196;2024-02-26T15:11:14;5.40;;;4.90;;
9823;SDS011;4951;50.778;7.196;2024-02-26T15:13:47;7.50;;;5.57;;
9823;SDS011;4951;50.778;7.196;2024-02-26T15:16:19;6.40;;;5.53;;
9823;SDS011;4951;50.778;7.196;2024-02-26T15:18:49;7.27;;;6.13;;
9823;SDS011;4951;50.778;7.196;2024-02-26T15:21:20;7.53;;;5.70;;
9823;SDS011;4951;50.778;7.196;2024-02-26T15:23:51;7.53;;;5.80;;
9823;SDS011;4951;50.778;7.196;2024-02-26T15:26:23;6.50;;;5.80;;
9823;SDS011;4951;50.778;7.196;2024-02-26T15:28:52;6.63;;;5.90;;
9823;SDS011;4951;50.778;7.196;2024-02-26T15:31:20;8.63;;;5.80;;
9823;SDS011;4951;50.778;7.196;2024-02-26T15:33:52;7.07;;;6.00;;
9823;SDS011;4951;50.778;7.196;2024-02-26T15:36:23;7.00;;;5.90;;
9823;SDS011;4951;50.778;7.196;2024-02-26T15:38:58;7.73;;;5.53;;
9823;SDS011;4951;50.778;7.196;2024-02-26T15:41:32;8.77;;;6.77;;
9823;SDS011;4951;50.778;7.196;2024-02-26T15:44:07;6.50;;;5.90;;
9823;SDS011;4951;50.778;7.196;2024-02-26T15:46:39;6.73;;;5.87;;
9823;SDS011;4951;50.778;7.196;2024-02-26T15:49:11;7.13;;;6.30;;
9823;SDS011;4951;50.778;7.196;2024-02-26T15:51:48;10.00;;;6.67;;
9823;SDS011;4951;50.778;7.196;2024-02-26T15:54:18;7.70;;;5.50;;
9823;SDS011;4951;50.778;7.196;2024-02-26T15:56:49;6.37;;;5.53;;
9823;SDS011;4951;50.778;7.196;2024-02-26T15:59:23;6.00;;;5.40;;
9823;SDS011;4951;50.778;7.196;2024-02-26T16:01:53;6.17;;;5.17;;
9823;SDS011;4951;50.778;7.196;2024-02-26T16:04:25;7.50;;;5.83;;
9823;SDS011;4951;50.778;7.196;2024-02-26T16:06:57;7.70;;;5.73;;